createdAt,value
2018-02-07T00:01:13.599Z,43.28
2018-02-07T00:03:42.536Z,42.28
2018-02-07T00:06:10.813Z,42.95
2018-02-07T00:08:39.175Z,41.47
2018-02-07T00:11:07.435Z,38.70
2018-02-07T00:13:35.565Z,43.92
2018-02-07T00:16:03.864Z,43.63
2018-02-07T00:18:33.613Z,45.63
2018-02-07T00:21:01.831Z,44.22
2018-02-07T00:23:30.056Z,39.55
2018-02-07T00:25:58.254Z,43.28
2018-02-07T00:28:26.433Z,46.25
2018-02-07T00:30:54.808Z,40.53
2018-02-07T00:33:22.972Z,44.42
2018-02-07T00:35:51.193Z,39.13
2018-02-07T00:38:20.172Z,43.72
2018-02-07T00:40:49.210Z,41.85
2018-02-07T00:43:17.480Z,36.25
2018-02-07T00:45:45.725Z,39.25
2018-02-07T00:48:13.988Z,40.72
2018-02-07T00:50:42.962Z,38.78
2018-02-07T00:53:11.157Z,39.88
2018-02-07T00:55:39.394Z,42.65
2018-02-07T00:58:07.525Z,42.38
2018-02-07T01:00:35.680Z,43.50
2018-02-07T01:03:03.854Z,43.47
2018-02-07T01:05:32.077Z,38.13
2018-02-07T01:08:00.241Z,38.72
2018-02-07T01:10:28.486Z,44.45
2018-02-07T01:12:56.687Z,40.85
2018-02-07T01:15:24.817Z,40.80
2018-02-07T01:17:52.997Z,41.47
2018-02-07T01:20:21.181Z,43.95
2018-02-07T01:22:49.332Z,40.55
2018-02-07T01:25:18.293Z,43.10
2018-02-07T01:27:46.576Z,43.72
2018-02-07T01:30:15.483Z,41.67
2018-02-07T01:32:44.448Z,45.65
2018-02-07T01:35:12.613Z,39.92
2018-02-07T01:37:41.601Z,50.08
2018-02-07T01:40:09.777Z,45.80
2018-02-07T01:42:37.939Z,41.13
2018-02-07T01:45:07.624Z,39.97
2018-02-07T01:47:37.455Z,48.87
2018-02-07T01:50:05.705Z,45.67
2018-02-07T01:52:33.908Z,42.38
2018-02-07T01:55:02.060Z,41.25
2018-02-07T01:57:30.389Z,43.92
2018-02-07T01:59:58.562Z,42.85
2018-02-07T02:02:26.796Z,40.05
2018-02-07T02:04:54.992Z,41.63
2018-02-07T02:07:23.307Z,39.95
2018-02-07T02:09:51.527Z,40.05
2018-02-07T02:12:20.652Z,47.85
2018-02-07T02:14:49.653Z,44.10
2018-02-07T02:17:32.696Z,43.30
2018-02-07T02:20:00.913Z,41.15
2018-02-07T02:22:29.080Z,41.28
2018-02-07T02:24:58.775Z,41.10
2018-02-07T02:27:27.057Z,36.67
2018-02-07T02:29:55.258Z,43.87
2018-02-07T02:32:23.508Z,45.20
2018-02-07T02:34:51.829Z,41.42
2018-02-07T02:37:21.024Z,44.58
2018-02-07T02:39:50.115Z,41.80
2018-02-07T02:42:18.298Z,44.13
2018-02-07T02:44:46.489Z,44.40
2018-02-07T02:49:49.148Z,42.80
2018-02-07T02:52:18.149Z,42.62
2018-02-07T02:54:47.122Z,47.03
2018-02-07T02:57:15.385Z,45.75
2018-02-07T02:59:43.902Z,43.95
2018-02-07T03:02:12.035Z,44.58
2018-02-07T03:04:40.368Z,43.35
2018-02-07T03:07:08.751Z,46.33
2018-02-07T03:09:36.930Z,43.30
2018-02-07T03:12:05.109Z,42.92
2018-02-07T03:14:33.313Z,45.67
2018-02-07T03:17:01.832Z,45.72
2018-02-07T03:19:29.981Z,41.35
2018-02-07T03:21:58.351Z,45.53
2018-02-07T03:24:27.300Z,41.13
2018-02-07T03:26:55.838Z,46.05
2018-02-07T03:29:24.238Z,48.28
2018-02-07T03:31:52.476Z,47.25
2018-02-07T03:34:20.864Z,47.47
2018-02-07T03:36:49.274Z,43.50
2018-02-07T03:39:17.516Z,40.65
2018-02-07T03:41:46.033Z,44.63
2018-02-07T03:44:14.678Z,40.03
2018-02-07T03:46:42.812Z,43.05
2018-02-07T03:49:10.993Z,42.53
2018-02-07T03:51:39.470Z,42.40
2018-02-07T03:54:08.458Z,45.05
2018-02-07T03:56:36.736Z,38.90
2018-02-07T03:59:04.971Z,38.70
2018-02-07T04:01:33.099Z,41.95
2018-02-07T04:04:02.071Z,45.30
2018-02-07T04:06:30.340Z,49.63
2018-02-07T04:08:58.551Z,50.58
2018-02-07T04:11:26.897Z,52.17
2018-02-07T04:13:55.169Z,44.83
2018-02-07T04:16:23.424Z,44.03
2018-02-07T04:18:51.666Z,40.20
2018-02-07T04:21:20.533Z,37.95
2018-02-07T04:23:49.484Z,45.03
2018-02-07T04:26:17.624Z,39.70
2018-02-07T04:28:45.817Z,48.03
2018-02-07T04:31:13.945Z,44.55
2018-02-07T04:33:42.936Z,50.08
2018-02-07T04:36:11.852Z,50.67
2018-02-07T04:38:40.164Z,52.13
2018-02-07T04:41:08.457Z,47.42
2018-02-07T04:43:36.681Z,48.22
2018-02-07T04:46:04.924Z,47.08
2018-02-07T04:48:33.821Z,49.30
2018-02-07T04:51:02.086Z,47.25
2018-02-07T04:53:30.280Z,48.00
2018-02-07T04:55:58.480Z,47.72
2018-02-07T04:58:26.605Z,46.15
2018-02-07T05:00:55.512Z,47.95
2018-02-07T05:03:23.642Z,50.63
2018-02-07T05:05:51.784Z,44.85
2018-02-07T05:08:20.678Z,53.10
2018-02-07T05:10:49.713Z,100.70
2018-02-07T05:13:17.858Z,56.22
2018-02-07T05:15:46.756Z,54.70
2018-02-07T05:18:14.886Z,45.08
2018-02-07T05:20:43.020Z,44.13
2018-02-07T05:23:11.912Z,47.03
2018-02-07T05:25:40.812Z,48.60
2018-02-07T05:28:08.936Z,45.90
2018-02-07T05:30:37.097Z,45.45
2018-02-07T05:33:05.220Z,53.40
2018-02-07T05:35:33.429Z,49.70
2018-02-07T05:38:01.528Z,44.75
2018-02-07T05:40:29.676Z,43.05
2018-02-07T05:42:57.828Z,50.63
2018-02-07T05:45:26.235Z,52.53
2018-02-07T05:47:54.382Z,46.58
2018-02-07T05:50:22.676Z,49.38
2018-02-07T05:52:50.851Z,44.05
2018-02-07T05:55:19.484Z,48.13
2018-02-07T05:57:48.368Z,39.90
2018-02-07T06:00:17.277Z,47.08
2018-02-07T06:02:45.400Z,46.13
2018-02-07T06:05:14.020Z,52.45
2018-02-07T06:07:42.933Z,57.92
2018-02-07T06:10:11.044Z,52.30
2018-02-07T06:12:39.192Z,49.15
2018-02-07T06:15:07.340Z,44.17
2018-02-07T06:17:35.486Z,45.03
2018-02-07T06:20:03.611Z,51.20
2018-02-07T06:22:31.846Z,44.10
2018-02-07T06:24:59.976Z,43.03
2018-02-07T06:27:28.168Z,45.95
2018-02-07T06:29:57.785Z,48.63
2018-02-07T06:32:25.944Z,47.53
2018-02-07T06:34:54.829Z,48.87
2018-02-07T06:37:22.965Z,44.30
2018-02-07T06:39:51.090Z,44.28
2018-02-07T06:42:19.232Z,45.00
2018-02-07T06:44:47.356Z,43.50
2018-02-07T06:47:15.537Z,42.72
2018-02-07T06:49:43.763Z,47.40
2018-02-07T06:52:11.902Z,47.97
2018-02-07T06:54:40.077Z,44.88
2018-02-07T06:57:08.229Z,49.15
2018-02-07T06:59:36.349Z,49.72
2018-02-07T07:02:05.271Z,43.40
2018-02-07T07:04:33.400Z,44.00
2018-02-07T07:07:01.556Z,50.70
2018-02-07T07:09:29.706Z,49.60
2018-02-07T07:11:59.057Z,47.97
2018-02-07T07:14:27.228Z,104.30
2018-02-07T07:16:56.164Z,97.05
2018-02-07T07:19:24.330Z,102.60
2018-02-07T07:21:52.468Z,82.10
2018-02-07T07:24:21.393Z,71.65
2018-02-07T07:26:49.654Z,60.03
2018-02-07T07:29:17.806Z,52.03
2018-02-07T07:31:46.745Z,48.45
2018-02-07T07:34:15.240Z,47.80
2018-02-07T07:36:43.361Z,52.80
2018-02-07T07:39:11.508Z,43.33
2018-02-07T07:41:40.784Z,45.22
2018-02-07T07:44:08.964Z,42.15
2018-02-07T07:46:37.103Z,45.53
2018-02-07T07:49:05.250Z,44.42
2018-02-07T07:51:33.400Z,46.33
2018-02-07T07:54:02.317Z,43.47
2018-02-07T07:56:30.480Z,48.60
2018-02-07T07:58:58.610Z,44.08
2018-02-07T08:01:26.749Z,41.55
2018-02-07T08:03:54.872Z,52.45
2018-02-07T08:06:23.052Z,56.63
2018-02-07T08:08:51.944Z,54.95
2018-02-07T08:11:20.869Z,46.83
2018-02-07T08:13:49.031Z,57.92
2018-02-07T08:16:17.180Z,47.30
2018-02-07T08:18:45.318Z,49.20
2018-02-07T08:21:13.478Z,45.40
2018-02-07T08:23:41.612Z,50.35
2018-02-07T08:26:09.816Z,52.28
2018-02-07T08:28:37.950Z,50.30
2018-02-07T08:31:06.088Z,43.13
2018-02-07T08:33:34.252Z,50.05
2018-02-07T08:36:02.418Z,49.90
2018-02-07T08:38:30.553Z,51.25
2018-02-07T08:40:58.882Z,48.67
2018-02-07T08:43:27.792Z,48.63
2018-02-07T08:45:55.911Z,43.80
2018-02-07T08:48:24.107Z,48.92
2018-02-07T08:50:52.230Z,45.40
2018-02-07T08:53:20.388Z,46.20
2018-02-07T08:55:49.435Z,49.60
2018-02-07T08:58:17.629Z,45.63
2018-02-07T09:00:45.730Z,44.33
2018-02-07T09:03:13.885Z,52.67
2018-02-07T09:05:42.012Z,45.50
2018-02-07T09:08:10.163Z,48.28
2018-02-07T09:10:38.338Z,49.92
2018-02-07T09:13:06.494Z,47.90
2018-02-07T09:15:34.616Z,48.53
2018-02-07T09:18:02.769Z,49.42
2018-02-07T09:20:31.675Z,50.00
2018-02-07T09:22:59.817Z,48.33
2018-02-07T09:25:27.951Z,48.53
2018-02-07T09:27:56.121Z,51.80
2018-02-07T09:30:24.272Z,51.53
2018-02-07T09:32:52.392Z,51.03
2018-02-07T09:35:20.524Z,51.13
2018-02-07T09:37:49.420Z,51.67
2018-02-07T09:40:17.565Z,50.50
2018-02-07T09:42:45.684Z,54.95
2018-02-07T09:45:13.824Z,52.20
2018-02-07T09:47:41.976Z,50.00
2018-02-07T09:50:10.127Z,55.78
2018-02-07T09:52:38.266Z,54.22
2018-02-07T09:55:06.412Z,54.13
2018-02-07T09:57:34.606Z,52.28
2018-02-07T10:00:02.778Z,49.60
2018-02-07T10:02:30.913Z,55.85
2018-02-07T10:04:59.064Z,52.00
2018-02-07T10:07:27.185Z,51.08
2018-02-07T10:09:55.315Z,55.75
2018-02-07T10:12:23.486Z,52.78
2018-02-07T10:14:51.730Z,54.55
2018-02-07T10:17:19.870Z,50.92
2018-02-07T10:19:48.012Z,53.72
2018-02-07T10:22:16.185Z,53.60
2018-02-07T10:24:44.292Z,53.25
2018-02-07T10:27:12.453Z,53.45
2018-02-07T10:29:40.659Z,49.40
2018-02-07T10:32:08.789Z,47.35
2018-02-07T10:34:37.700Z,44.85
2018-02-07T10:37:05.851Z,51.10
2018-02-07T10:39:34.053Z,51.58
2018-02-07T10:42:02.932Z,48.55
2018-02-07T10:44:31.061Z,49.60
2018-02-07T10:46:59.224Z,50.00
2018-02-07T10:49:27.376Z,57.67
2018-02-07T10:51:55.482Z,52.72
2018-02-07T10:54:23.638Z,57.85
2018-02-07T10:56:51.778Z,54.63
2018-02-07T10:59:19.924Z,54.58
2018-02-07T11:01:48.085Z,54.50
2018-02-07T11:04:16.252Z,56.90
2018-02-07T11:06:45.165Z,50.47
2018-02-07T11:09:13.347Z,52.00
2018-02-07T11:11:41.496Z,44.38
2018-02-07T11:14:09.652Z,47.47
2018-02-07T11:16:38.573Z,44.97
2018-02-07T11:19:06.712Z,48.42
2018-02-07T11:21:35.600Z,48.58
2018-02-07T11:24:04.544Z,44.92
2018-02-07T11:26:32.674Z,55.08
2018-02-07T11:29:00.844Z,45.67
2018-02-07T11:31:28.977Z,50.12
2018-02-07T11:33:57.192Z,52.72
2018-02-07T11:36:25.313Z,46.70
2018-02-07T11:38:53.521Z,48.60
2018-02-07T11:41:22.396Z,44.35
2018-02-07T11:43:51.300Z,48.13
2018-02-07T11:46:19.428Z,48.65
2018-02-07T11:48:47.580Z,45.00
2018-02-07T11:51:15.729Z,47.70
2018-02-07T11:53:43.856Z,47.62
2018-02-07T11:56:12.079Z,45.58
2018-02-07T11:58:40.200Z,46.80
2018-02-07T12:01:09.136Z,48.92
2018-02-07T12:03:37.281Z,49.00
2018-02-07T12:06:05.408Z,52.13
2018-02-07T12:08:33.532Z,45.30
2018-02-07T12:11:02.575Z,56.13
2018-02-07T12:13:30.713Z,46.17
2018-02-07T12:15:58.867Z,52.80
2018-02-07T12:18:27.755Z,48.53
2018-02-07T12:20:56.685Z,50.78
2018-02-07T12:23:24.818Z,50.42
2018-02-07T12:25:53.712Z,50.70
2018-02-07T12:28:21.845Z,44.00
2018-02-07T12:30:49.966Z,44.08
2018-02-07T12:33:18.104Z,41.88
2018-02-07T12:35:47.004Z,45.38
2018-02-07T12:38:15.913Z,57.53
2018-02-07T12:40:44.035Z,52.83
2018-02-07T12:43:12.199Z,46.70
2018-02-07T12:45:40.398Z,44.97
2018-02-07T12:48:08.536Z,47.10
2018-02-07T12:50:36.760Z,48.83
2018-02-07T12:53:05.680Z,48.45
2018-02-07T12:55:33.847Z,49.40
2018-02-07T12:58:02.046Z,45.05
2018-02-07T13:00:30.347Z,45.28
2018-02-07T13:02:58.649Z,49.75
2018-02-07T13:05:27.572Z,46.85
2018-02-07T13:07:55.753Z,46.40
2018-02-07T13:10:23.905Z,53.83
2018-02-07T13:12:52.034Z,43.25
2018-02-07T13:15:20.198Z,46.92
2018-02-07T13:17:48.304Z,40.63
2018-02-07T13:20:16.457Z,46.33
2018-02-07T13:22:45.478Z,42.78
2018-02-07T13:25:14.432Z,44.65
2018-02-07T13:27:42.649Z,45.12
2018-02-07T13:30:10.901Z,50.08
2018-02-07T13:32:39.044Z,49.25
2018-02-07T13:35:07.194Z,43.13
2018-02-07T13:37:35.348Z,46.10
2018-02-07T13:40:03.518Z,49.72
2018-02-07T13:42:31.670Z,44.45
2018-02-07T13:44:59.880Z,38.70
2018-02-07T13:47:28.001Z,49.10
2018-02-07T13:49:56.149Z,51.45
2018-02-07T13:52:24.313Z,42.90
2018-02-07T13:54:52.508Z,50.97
2018-02-07T13:57:21.014Z,48.78
2018-02-07T13:59:49.133Z,50.40
2018-02-07T14:02:17.294Z,61.05
2018-02-07T14:04:45.454Z,57.17
2018-02-07T14:07:15.084Z,60.00
2018-02-07T14:09:43.236Z,45.47
2018-02-07T14:12:11.347Z,43.33
2018-02-07T14:14:39.618Z,45.55
2018-02-07T14:17:07.719Z,46.70
2018-02-07T14:19:35.853Z,41.78
2018-02-07T14:22:04.741Z,49.40
2018-02-07T14:24:32.916Z,51.40
2018-02-07T14:27:01.035Z,44.72
2018-02-07T14:29:29.166Z,46.20
2018-02-07T14:31:57.305Z,43.83
2018-02-07T14:34:25.430Z,38.38
2018-02-07T14:36:53.572Z,92.25
2018-02-07T14:39:21.707Z,46.55
2018-02-07T14:41:49.870Z,48.08
2018-02-07T14:44:18.009Z,46.60
2018-02-07T14:46:46.206Z,51.97
2018-02-07T14:49:15.224Z,43.85
2018-02-07T14:51:43.436Z,46.95
2018-02-07T14:54:11.529Z,81.95
2018-02-07T14:56:39.660Z,53.28
2018-02-07T14:59:08.544Z,53.38
2018-02-07T15:01:37.540Z,44.47
2018-02-07T15:04:05.668Z,43.67
2018-02-07T15:06:34.602Z,39.70
2018-02-07T15:09:03.480Z,42.47
2018-02-07T15:11:31.629Z,44.35
2018-02-07T15:13:59.753Z,48.45
2018-02-07T15:16:27.899Z,47.13
2018-02-07T15:18:56.033Z,58.97
2018-02-07T15:21:24.979Z,50.97
2018-02-07T15:23:53.100Z,45.50
2018-02-07T15:26:21.216Z,52.30
2018-02-07T15:28:49.358Z,49.97
2018-02-07T15:31:17.716Z,47.80
2018-02-07T15:33:45.920Z,42.22
2018-02-07T15:36:14.812Z,43.83
2018-02-07T15:38:43.942Z,48.40
2018-02-07T15:41:12.061Z,52.35
2018-02-07T15:43:40.984Z,49.92
2018-02-07T15:46:09.380Z,49.30
2018-02-07T15:48:37.514Z,51.70
2018-02-07T15:51:06.408Z,51.37
2018-02-07T15:53:34.581Z,48.75
2018-02-07T15:56:02.716Z,46.00
2018-02-07T15:58:30.862Z,53.30
2018-02-07T16:00:58.992Z,47.00
2018-02-07T16:03:27.169Z,47.53
2018-02-07T16:05:56.133Z,50.00
2018-02-07T16:08:24.298Z,49.80
2018-02-07T16:10:54.018Z,48.47
2018-02-07T16:13:22.899Z,51.00
2018-02-07T16:15:51.033Z,47.65
2018-02-07T16:18:19.210Z,50.83
2018-02-07T16:20:47.430Z,49.38
2018-02-07T16:23:16.330Z,52.92
2018-02-07T16:25:45.246Z,44.00
2018-02-07T16:28:13.623Z,50.92
2018-02-07T16:30:41.748Z,50.33
2018-02-07T16:33:09.885Z,53.72
2018-02-07T16:35:38.030Z,59.88
2018-02-07T16:38:06.155Z,55.10
2018-02-07T16:40:35.065Z,53.92
2018-02-07T16:43:03.192Z,55.00
2018-02-07T16:45:31.320Z,53.20
2018-02-07T16:47:59.456Z,53.38
2018-02-07T16:50:28.366Z,51.95
2018-02-07T16:52:56.512Z,50.33
2018-02-07T16:55:24.653Z,52.33
2018-02-07T16:57:52.773Z,53.95
2018-02-07T17:00:21.042Z,52.85
2018-02-07T17:02:49.158Z,53.45
2018-02-07T17:05:17.309Z,50.25
2018-02-07T17:07:45.441Z,49.58
2018-02-07T17:10:14.305Z,56.55
2018-02-07T17:12:42.449Z,56.75
2018-02-07T17:15:10.712Z,55.65
2018-02-07T17:17:38.828Z,51.22
2018-02-07T17:20:06.958Z,54.53
2018-02-07T17:22:35.104Z,50.75
2018-02-07T17:25:04.008Z,62.20
2018-02-07T17:27:32.139Z,48.20
2018-02-07T17:30:00.330Z,47.90
2018-02-07T17:32:28.641Z,52.45
2018-02-07T17:34:56.771Z,55.42
2018-02-07T17:37:24.907Z,51.83
2018-02-07T17:39:53.032Z,58.33
2018-02-07T17:42:21.173Z,59.10
2018-02-07T17:44:49.392Z,70.30
2018-02-07T17:47:17.573Z,70.68
2018-02-07T17:49:45.700Z,71.93
2018-02-07T17:52:13.840Z,71.12
2018-02-07T17:54:41.959Z,68.10
2018-02-07T17:57:10.113Z,71.05
2018-02-07T17:59:38.296Z,66.53
2018-02-07T18:02:06.453Z,74.47
2018-02-07T18:04:34.567Z,66.85
2018-02-07T18:07:02.704Z,57.70
2018-02-07T18:09:30.844Z,55.33
2018-02-07T18:12:00.601Z,59.10
2018-02-07T18:14:29.509Z,59.97
2018-02-07T18:16:57.695Z,65.93
2018-02-07T18:19:25.815Z,65.55
2018-02-07T18:21:53.953Z,54.60
2018-02-07T18:24:22.845Z,52.33
2018-02-07T18:26:51.021Z,55.12
2018-02-07T18:29:19.237Z,48.80
2018-02-07T18:31:48.121Z,46.67
2018-02-07T18:34:17.119Z,50.17
2018-02-07T18:36:45.246Z,53.20
2018-02-07T18:39:13.412Z,53.60
2018-02-07T18:41:41.533Z,54.45
2018-02-07T18:44:09.753Z,47.40
2018-02-07T18:46:38.661Z,53.92
2018-02-07T18:49:06.804Z,49.55
2018-02-07T18:51:34.945Z,49.47
2018-02-07T18:54:03.144Z,49.50
2018-02-07T18:56:31.330Z,51.92
2018-02-07T18:58:59.460Z,49.15
2018-02-07T19:01:27.598Z,48.10
2018-02-07T19:03:55.752Z,55.45
2018-02-07T19:06:23.909Z,49.97
2018-02-07T19:08:52.048Z,54.63
2018-02-07T19:11:20.196Z,52.47
2018-02-07T19:13:49.091Z,51.25
2018-02-07T19:16:18.014Z,51.10
2018-02-07T19:18:46.164Z,50.05
2018-02-07T19:21:15.105Z,50.38
2018-02-07T19:23:43.235Z,52.28
2018-02-07T19:26:11.402Z,53.58
2018-02-07T19:28:40.288Z,57.62
2018-02-07T19:31:09.230Z,51.50
2018-02-07T19:33:37.924Z,54.53
2018-02-07T19:36:06.457Z,55.92
2018-02-07T19:38:35.700Z,56.83
2018-02-07T19:41:04.593Z,52.35
2018-02-07T19:43:33.285Z,51.25
2018-02-07T19:46:02.535Z,55.38
2018-02-07T19:48:30.648Z,57.17
2018-02-07T19:51:00.550Z,53.80
2018-02-07T19:53:29.594Z,51.67
2018-02-07T19:55:58.734Z,53.22
2018-02-07T19:58:27.931Z,51.30
2018-02-07T20:00:56.236Z,54.38
2018-02-07T20:03:26.423Z,57.25
2018-02-07T20:05:54.861Z,52.72
2018-02-07T20:08:24.356Z,51.15
2018-02-07T20:10:53.480Z,57.88
2018-02-07T20:13:22.232Z,49.38
2018-02-07T20:15:53.307Z,56.42
2018-02-07T20:18:22.642Z,54.45
2018-02-07T20:20:50.772Z,54.88
2018-02-07T20:23:19.491Z,51.63
2018-02-07T20:25:47.628Z,54.47
2018-02-07T20:28:15.778Z,51.03
2018-02-07T20:30:44.018Z,53.13
2018-02-07T20:33:12.138Z,52.62
2018-02-07T20:35:40.351Z,50.58
2018-02-07T20:38:08.485Z,52.85
2018-02-07T20:40:36.636Z,51.50
2018-02-07T20:43:05.530Z,50.63
2018-02-07T20:45:33.721Z,54.67
2018-02-07T20:48:01.848Z,51.72
2018-02-07T20:50:30.748Z,48.17
2018-02-07T20:52:59.657Z,48.25
2018-02-07T20:55:27.798Z,52.50
2018-02-07T20:57:56.700Z,56.10
2018-02-07T21:00:24.972Z,55.65
2018-02-07T21:02:53.144Z,57.05
2018-02-07T21:05:22.859Z,53.35
2018-02-07T21:07:51.008Z,55.45
2018-02-07T21:10:19.135Z,59.00
2018-02-07T21:12:47.268Z,53.00
2018-02-07T21:15:15.406Z,56.17
2018-02-07T21:17:43.548Z,53.35
2018-02-07T21:20:11.663Z,57.55
2018-02-07T21:22:40.243Z,56.55
2018-02-07T21:25:09.140Z,52.80
2018-02-07T21:27:38.044Z,55.38
2018-02-07T21:30:06.175Z,58.03
2018-02-07T21:32:34.324Z,53.75
2018-02-07T21:35:02.456Z,57.65
2018-02-07T21:37:30.607Z,59.97
2018-02-07T21:39:58.745Z,66.10
2018-02-07T21:42:26.904Z,58.97
2018-02-07T21:44:55.065Z,61.83
2018-02-07T21:47:23.928Z,63.28
2018-02-07T21:49:52.840Z,58.15
2018-02-07T21:52:20.973Z,53.78
2018-02-07T21:54:49.137Z,54.47
2018-02-07T21:57:17.255Z,58.08
2018-02-07T21:59:45.488Z,54.72
2018-02-07T22:02:13.626Z,58.08
2018-02-07T22:04:41.766Z,63.55
2018-02-07T22:07:10.268Z,58.67
2018-02-07T22:09:38.396Z,67.78
2018-02-07T22:12:07.283Z,58.80
2018-02-07T22:14:36.188Z,61.25
2018-02-07T22:17:04.682Z,63.70
2018-02-07T22:19:32.808Z,63.90
2018-02-07T22:22:00.934Z,56.45
2018-02-07T22:24:29.087Z,66.28
2018-02-07T22:26:57.215Z,61.30
2018-02-07T22:29:26.283Z,67.20
2018-02-07T22:31:54.408Z,60.15
2018-02-07T22:34:22.587Z,61.08
2018-02-07T22:36:51.488Z,66.20
2018-02-07T22:39:19.612Z,63.50
2018-02-07T22:41:47.763Z,70.40
2018-02-07T22:44:16.653Z,67.28
2018-02-07T22:46:44.783Z,68.60
2018-02-07T22:49:12.916Z,60.35
2018-02-07T22:51:41.110Z,66.32
2018-02-07T22:54:10.000Z,59.28
2018-02-07T22:56:38.141Z,55.50
2018-02-07T22:59:06.264Z,63.80
2018-02-07T23:01:34.409Z,59.50
2018-02-07T23:04:02.565Z,63.42
2018-02-07T23:06:30.749Z,71.68
2018-02-07T23:08:59.051Z,68.20
2018-02-07T23:11:27.190Z,69.90
2018-02-07T23:13:55.325Z,66.95
2018-02-07T23:16:23.456Z,62.13
2018-02-07T23:18:51.616Z,66.78
2018-02-07T23:21:20.575Z,70.85
2018-02-07T23:23:48.718Z,76.70
2018-02-07T23:26:16.836Z,71.97
2018-02-07T23:28:44.994Z,78.80
2018-02-07T23:31:13.108Z,71.80
2018-02-07T23:33:41.249Z,79.20
2018-02-07T23:36:09.393Z,76.85
2018-02-07T23:38:37.537Z,77.95
2018-02-07T23:41:05.674Z,77.37
2018-02-07T23:43:34.576Z,79.47
2018-02-07T23:46:02.711Z,70.78
2018-02-07T23:48:30.848Z,77.55
2018-02-07T23:50:58.968Z,74.62
2018-02-07T23:53:27.111Z,82.95
2018-02-07T23:55:55.240Z,75.00
2018-02-07T23:58:23.380Z,82.80
